sensor_id;sensor_type;location;lat;lon;timestamp;temperature;humidity
38020;DHT22;23829;51.350;17.286;2022-11-20T00:01:15;15.00;29.70
38020;DHT22;23829;51.350;17.286;2022-11-20T00:03:42;15.00;29.70
38020;DHT22;23829;51.350;17.286;2022-11-20T00:06:11;14.90;29.70
38020;DHT22;23829;51.350;17.286;2022-11-20T00:08:38;15.10;29.80
38020;DHT22;23829;51.350;17.286;2022-11-20T00:11:06;15.30;29.50
38020;DHT22;23829;51.350;17.286;2022-11-20T00:13:33;15.20;29.30
38020;DHT22;23829;51.350;17.286;2022-11-20T00:16:03;15.20;29.30
38020;DHT22;23829;51.350;17.286;2022-11-20T00:18:32;15.20;29.30
38020;DHT22;23829;51.350;17.286;2022-11-20T00:21:07;15.40;29.40
38020;DHT22;23829;51.350;17.286;2022-11-20T00:23:34;15.50;29.00
38020;DHT22;23829;51.350;17.286;2022-11-20T00:26:08;15.20;29.20
38020;DHT22;23829;51.350;17.286;2022-11-20T00:28:35;15.10;29.30
38020;DHT22;23829;51.350;17.286;2022-11-20T00:31:07;14.90;29.50
38020;DHT22;23829;51.350;17.286;2022-11-20T00:33:34;14.80;29.70
38020;DHT22;23829;51.350;17.286;2022-11-20T00:36:09;14.90;29.60
38020;DHT22;23829;51.350;17.286;2022-11-20T00:38:36;14.80;29.70
38020;DHT22;23829;51.350;17.286;2022-11-20T00:41:06;14.70;29.90
38020;DHT22;23829;51.350;17.286;2022-11-20T00:43:33;14.70;29.90
38020;DHT22;23829;51.350;17.286;2022-11-20T00:46:08;14.60;29.90
38020;DHT22;23829;51.350;17.286;2022-11-20T00:48:35;14.60;30.00
38020;DHT22;23829;51.350;17.286;2022-11-20T00:51:02;14.30;30.10
38020;DHT22;23829;51.350;17.286;2022-11-20T00:53:28;14.20;30.30
38020;DHT22;23829;51.350;17.286;2022-11-20T00:56:00;14.10;30.60
38020;DHT22;23829;51.350;17.286;2022-11-20T00:58:32;14.20;30.60
38020;DHT22;23829;51.350;17.286;2022-11-20T01:01:06;13.80;31.00
38020;DHT22;23829;51.350;17.286;2022-11-20T01:03:34;13.70;31.40
38020;DHT22;23829;51.350;17.286;2022-11-20T01:06:23;13.80;31.30
38020;DHT22;23829;51.350;17.286;2022-11-20T01:08:49;13.90;31.10
38020;DHT22;23829;51.350;17.286;2022-11-20T01:11:19;13.90;31.00
38020;DHT22;23829;51.350;17.286;2022-11-20T01:13:47;14.00;30.90
38020;DHT22;23829;51.350;17.286;2022-11-20T01:18:47;14.30;30.60
38020;DHT22;23829;51.350;17.286;2022-11-20T01:21:38;14.40;30.30
38020;DHT22;23829;51.350;17.286;2022-11-20T01:24:04;14.40;30.20
38020;DHT22;23829;51.350;17.286;2022-11-20T01:26:33;14.00;30.60
38020;DHT22;23829;51.350;17.286;2022-11-20T01:29:01;14.20;30.50
38020;DHT22;23829;51.350;17.286;2022-11-20T01:31:30;14.20;30.50
38020;DHT22;23829;51.350;17.286;2022-11-20T01:34:00;14.10;30.50
38020;DHT22;23829;51.350;17.286;2022-11-20T01:36:28;13.90;30.70
38020;DHT22;23829;51.350;17.286;2022-11-20T01:39:00;14.00;30.90
38020;DHT22;23829;51.350;17.286;2022-11-20T01:41:29;14.10;30.50
38020;DHT22;23829;51.350;17.286;2022-11-20T01:44:17;14.00;30.70
38020;DHT22;23829;51.350;17.286;2022-11-20T01:47:01;13.60;31.30
38020;DHT22;23829;51.350;17.286;2022-11-20T01:49:40;13.80;31.40
38020;DHT22;23829;51.350;17.286;2022-11-20T01:52:16;13.90;31.10
38020;DHT22;23829;51.350;17.286;2022-11-20T01:55:07;13.80;31.00
38020;DHT22;23829;51.350;17.286;2022-11-20T01:57:34;13.90;30.90
38020;DHT22;23829;51.350;17.286;2022-11-20T02:00:11;14.00;30.90
38020;DHT22;23829;51.350;17.286;2022-11-20T02:03:29;14.10;30.80
38020;DHT22;23829;51.350;17.286;2022-11-20T02:06:04;14.00;30.70
38020;DHT22;23829;51.350;17.286;2022-11-20T02:08:32;13.80;31.30
38020;DHT22;23829;51.350;17.286;2022-11-20T02:10:59;13.70;31.30
38020;DHT22;23829;51.350;17.286;2022-11-20T02:13:25;13.80;31.20
38020;DHT22;23829;51.350;17.286;2022-11-20T02:16:25;13.90;31.10
38020;DHT22;23829;51.350;17.286;2022-11-20T02:18:53;13.60;31.50
38020;DHT22;23829;51.350;17.286;2022-11-20T02:26:40;13.40;31.90
38020;DHT22;23829;51.350;17.286;2022-11-20T02:29:07;13.30;31.80
38020;DHT22;23829;51.350;17.286;2022-11-20T02:31:40;13.20;32.00
38020;DHT22;23829;51.350;17.286;2022-11-20T02:34:07;13.20;32.00
38020;DHT22;23829;51.350;17.286;2022-11-20T02:36:36;13.20;32.10
38020;DHT22;23829;51.350;17.286;2022-11-20T02:39:03;13.10;32.10
38020;DHT22;23829;51.350;17.286;2022-11-20T02:41:35;13.10;32.30
38020;DHT22;23829;51.350;17.286;2022-11-20T02:44:02;13.10;32.20
38020;DHT22;23829;51.350;17.286;2022-11-20T02:46:31;13.30;32.20
38020;DHT22;23829;51.350;17.286;2022-11-20T02:48:57;13.30;31.80
38020;DHT22;23829;51.350;17.286;2022-11-20T02:51:24;13.30;31.80
38020;DHT22;23829;51.350;17.286;2022-11-20T02:53:51;13.40;31.80
38020;DHT22;23829;51.350;17.286;2022-11-20T02:56:17;13.70;31.50
38020;DHT22;23829;51.350;17.286;2022-11-20T02:58:43;13.60;31.40
38020;DHT22;23829;51.350;17.286;2022-11-20T03:01:10;13.40;31.60
38020;DHT22;23829;51.350;17.286;2022-11-20T03:03:36;13.50;31.50
38020;DHT22;23829;51.350;17.286;2022-11-20T03:06:03;13.50;31.50
38020;DHT22;23829;51.350;17.286;2022-11-20T03:08:29;13.60;31.50
38020;DHT22;23829;51.350;17.286;2022-11-20T03:10:56;13.70;31.40
38020;DHT22;23829;51.350;17.286;2022-11-20T03:13:22;13.80;31.00
38020;DHT22;23829;51.350;17.286;2022-11-20T03:15:49;14.00;30.90
38020;DHT22;23829;51.350;17.286;2022-11-20T03:18:15;13.70;31.10
38020;DHT22;23829;51.350;17.286;2022-11-20T03:20:42;13.50;31.70
38020;DHT22;23829;51.350;17.286;2022-11-20T03:23:08;13.60;31.70
38020;DHT22;23829;51.350;17.286;2022-11-20T03:25:34;13.60;31.80
38020;DHT22;23829;51.350;17.286;2022-11-20T03:28:01;13.70;31.70
38020;DHT22;23829;51.350;17.286;2022-11-20T03:30:27;14.00;31.30
38020;DHT22;23829;51.350;17.286;2022-11-20T03:32:54;13.80;31.50
38020;DHT22;23829;51.350;17.286;2022-11-20T03:35:21;13.80;31.60
38020;DHT22;23829;51.350;17.286;2022-11-20T03:37:47;13.80;31.50
38020;DHT22;23829;51.350;17.286;2022-11-20T03:40:14;13.90;31.30
38020;DHT22;23829;51.350;17.286;2022-11-20T03:42:41;13.90;31.30
38020;DHT22;23829;51.350;17.286;2022-11-20T03:45:15;13.90;31.20
38020;DHT22;23829;51.350;17.286;2022-11-20T03:47:42;14.00;31.30
38020;DHT22;23829;51.350;17.286;2022-11-20T03:50:11;13.80;31.20
38020;DHT22;23829;51.350;17.286;2022-11-20T03:52:39;13.60;31.50
38020;DHT22;23829;51.350;17.286;2022-11-20T03:55:06;13.50;31.70
38020;DHT22;23829;51.350;17.286;2022-11-20T03:57:33;13.50;31.80
38020;DHT22;23829;51.350;17.286;2022-11-20T03:59:59;13.50;31.70
38020;DHT22;23829;51.350;17.286;2022-11-20T04:02:26;13.70;31.60
38020;DHT22;23829;51.350;17.286;2022-11-20T04:04:52;14.00;31.00
38020;DHT22;23829;51.350;17.286;2022-11-20T04:07:19;14.00;30.80
38020;DHT22;23829;51.350;17.286;2022-11-20T04:09:45;14.00;30.80
38020;DHT22;23829;51.350;17.286;2022-11-20T04:12:11;13.90;30.90
38020;DHT22;23829;51.350;17.286;2022-11-20T04:14:38;13.90;30.80
38020;DHT22;23829;51.350;17.286;2022-11-20T04:17:04;13.80;30.90
38020;DHT22;23829;51.350;17.286;2022-11-20T04:19:31;13.90;30.70
38020;DHT22;23829;51.350;17.286;2022-11-20T04:21:57;13.70;30.80
38020;DHT22;23829;51.350;17.286;2022-11-20T04:24:23;13.50;31.10
38020;DHT22;23829;51.350;17.286;2022-11-20T04:26:50;13.50;31.20
38020;DHT22;23829;51.350;17.286;2022-11-20T04:29:16;13.50;31.10
38020;DHT22;23829;51.350;17.286;2022-11-20T04:31:42;13.70;31.00
38020;DHT22;23829;51.350;17.286;2022-11-20T04:34:11;13.70;30.90
38020;DHT22;23829;51.350;17.286;2022-11-20T04:36:37;13.90;30.60
38020;DHT22;23829;51.350;17.286;2022-11-20T04:39:05;13.80;30.50
38020;DHT22;23829;51.350;17.286;2022-11-20T04:41:34;13.70;30.60
38020;DHT22;23829;51.350;17.286;2022-11-20T04:44:04;13.80;30.50
38020;DHT22;23829;51.350;17.286;2022-11-20T04:46:34;13.80;30.50
38020;DHT22;23829;51.350;17.286;2022-11-20T04:49:01;13.90;30.40
38020;DHT22;23829;51.350;17.286;2022-11-20T04:51:27;13.90;30.20
38020;DHT22;23829;51.350;17.286;2022-11-20T04:53:54;13.90;31.10
38020;DHT22;23829;51.350;17.286;2022-11-20T04:56:21;13.70;30.50
38020;DHT22;23829;51.350;17.286;2022-11-20T04:58:47;13.60;30.80
38020;DHT22;23829;51.350;17.286;2022-11-20T05:01:19;13.60;30.80
38020;DHT22;23829;51.350;17.286;2022-11-20T05:03:47;13.50;30.90
38020;DHT22;23829;51.350;17.286;2022-11-20T05:06:14;13.50;30.80
38020;DHT22;23829;51.350;17.286;2022-11-20T05:08:42;13.70;30.70
38020;DHT22;23829;51.350;17.286;2022-11-20T05:11:14;13.70;30.40
38020;DHT22;23829;51.350;17.286;2022-11-20T05:13:41;13.70;30.40
38020;DHT22;23829;51.350;17.286;2022-11-20T05:16:16;13.70;30.40
38020;DHT22;23829;51.350;17.286;2022-11-20T05:18:43;13.80;30.30
38020;DHT22;23829;51.350;17.286;2022-11-20T05:21:11;13.50;30.60
38020;DHT22;23829;51.350;17.286;2022-11-20T05:23:38;13.70;30.50
38020;DHT22;23829;51.350;17.286;2022-11-20T05:26:06;13.80;30.20
38020;DHT22;23829;51.350;17.286;2022-11-20T05:28:33;14.00;30.00
38020;DHT22;23829;51.350;17.286;2022-11-20T05:31:06;14.00;30.00
38020;DHT22;23829;51.350;17.286;2022-11-20T05:33:34;14.00;29.90
38020;DHT22;23829;51.350;17.286;2022-11-20T05:36:04;14.10;29.90
38020;DHT22;23829;51.350;17.286;2022-11-20T05:38:31;14.10;29.80
38020;DHT22;23829;51.350;17.286;2022-11-20T05:41:10;14.20;29.60
38020;DHT22;23829;51.350;17.286;2022-11-20T05:43:38;14.10;29.60
38020;DHT22;23829;51.350;17.286;2022-11-20T05:46:06;14.40;29.60
38020;DHT22;23829;51.350;17.286;2022-11-20T05:48:33;14.50;29.30
38020;DHT22;23829;51.350;17.286;2022-11-20T05:51:01;14.80;29.00
38020;DHT22;23829;51.350;17.286;2022-11-20T05:53:28;15.00;28.80
38020;DHT22;23829;51.350;17.286;2022-11-20T05:56:15;15.10;28.40
38020;DHT22;23829;51.350;17.286;2022-11-20T05:58:42;15.40;27.90
38020;DHT22;23829;51.350;17.286;2022-11-20T06:01:20;15.60;27.60
38020;DHT22;23829;51.350;17.286;2022-11-20T06:03:48;15.60;27.40
38020;DHT22;23829;51.350;17.286;2022-11-20T06:06:18;15.60;27.50
38020;DHT22;23829;51.350;17.286;2022-11-20T06:08:45;15.50;27.60
38020;DHT22;23829;51.350;17.286;2022-11-20T06:11:12;15.50;27.50
38020;DHT22;23829;51.350;17.286;2022-11-20T06:13:39;15.50;27.50
38020;DHT22;23829;51.350;17.286;2022-11-20T06:16:06;15.50;27.40
38020;DHT22;23829;51.350;17.286;2022-11-20T06:18:33;15.40;27.50
38020;DHT22;23829;51.350;17.286;2022-11-20T06:21:08;15.30;27.50
38020;DHT22;23829;51.350;17.286;2022-11-20T06:23:36;15.20;27.50
38020;DHT22;23829;51.350;17.286;2022-11-20T06:26:13;15.20;27.60
38020;DHT22;23829;51.350;17.286;2022-11-20T06:28:40;15.20;27.60
38020;DHT22;23829;51.350;17.286;2022-11-20T06:31:07;15.10;27.70
38020;DHT22;23829;51.350;17.286;2022-11-20T06:33:36;15.00;27.80
38020;DHT22;23829;51.350;17.286;2022-11-20T06:36:03;14.70;27.90
38020;DHT22;23829;51.350;17.286;2022-11-20T06:38:30;14.50;28.30
38020;DHT22;23829;51.350;17.286;2022-11-20T06:40:56;14.30;28.50
38020;DHT22;23829;51.350;17.286;2022-11-20T06:43:23;14.30;28.70
38020;DHT22;23829;51.350;17.286;2022-11-20T06:45:53;14.40;28.80
38020;DHT22;23829;51.350;17.286;2022-11-20T06:48:21;14.40;28.80
38020;DHT22;23829;51.350;17.286;2022-11-20T06:50:47;14.40;28.80
38020;DHT22;23829;51.350;17.286;2022-11-20T06:53:14;14.50;28.70
38020;DHT22;23829;51.350;17.286;2022-11-20T06:55:47;14.30;28.90
38020;DHT22;23829;51.350;17.286;2022-11-20T06:58:15;14.50;29.00
38020;DHT22;23829;51.350;17.286;2022-11-20T07:00:41;14.50;29.00
38020;DHT22;23829;51.350;17.286;2022-11-20T07:03:10;14.50;29.00
38020;DHT22;23829;51.350;17.286;2022-11-20T07:05:36;14.00;29.40
38020;DHT22;23829;51.350;17.286;2022-11-20T07:08:05;13.80;29.90
38020;DHT22;23829;51.350;17.286;2022-11-20T07:10:32;14.00;30.00
38020;DHT22;23829;51.350;17.286;2022-11-20T07:12:58;14.00;30.00
38020;DHT22;23829;51.350;17.286;2022-11-20T07:15:26;13.90;30.00
38020;DHT22;23829;51.350;17.286;2022-11-20T07:17:52;14.20;30.00
38020;DHT22;23829;51.350;17.286;2022-11-20T07:20:19;14.30;30.00
38020;DHT22;23829;51.350;17.286;2022-11-20T07:22:45;14.60;29.80
38020;DHT22;23829;51.350;17.286;2022-11-20T07:25:11;14.70;29.60
38020;DHT22;23829;51.350;17.286;2022-11-20T07:27:38;14.50;29.80
38020;DHT22;23829;51.350;17.286;2022-11-20T07:30:04;14.20;30.00
38020;DHT22;23829;51.350;17.286;2022-11-20T07:32:31;14.20;30.30
38020;DHT22;23829;51.350;17.286;2022-11-20T07:34:57;14.40;30.20
38020;DHT22;23829;51.350;17.286;2022-11-20T07:37:24;14.50;30.00
38020;DHT22;23829;51.350;17.286;2022-11-20T07:39:50;14.70;29.90
38020;DHT22;23829;51.350;17.286;2022-11-20T07:42:16;14.70;29.80
38020;DHT22;23829;51.350;17.286;2022-11-20T07:44:43;14.70;30.00
38020;DHT22;23829;51.350;17.286;2022-11-20T07:47:09;15.00;29.80
38020;DHT22;23829;51.350;17.286;2022-11-20T07:49:36;15.20;29.60
38020;DHT22;23829;51.350;17.286;2022-11-20T07:52:02;15.30;29.50
38020;DHT22;23829;51.350;17.286;2022-11-20T07:54:28;15.10;29.60
38020;DHT22;23829;51.350;17.286;2022-11-20T07:56:55;15.20;30.00
38020;DHT22;23829;51.350;17.286;2022-11-20T07:59:21;15.20;30.00
38020;DHT22;23829;51.350;17.286;2022-11-20T08:01:48;15.20;29.60
38020;DHT22;23829;51.350;17.286;2022-11-20T08:04:14;15.20;29.60
38020;DHT22;23829;51.350;17.286;2022-11-20T08:06:42;15.30;29.50
38020;DHT22;23829;51.350;17.286;2022-11-20T08:09:08;15.60;29.40
38020;DHT22;23829;51.350;17.286;2022-11-20T08:11:35;15.80;29.20
38020;DHT22;23829;51.350;17.286;2022-11-20T08:14:20;15.90;29.10
38020;DHT22;23829;51.350;17.286;2022-11-20T08:16:48;15.80;29.10
38020;DHT22;23829;51.350;17.286;2022-11-20T08:19:16;15.70;29.30
38020;DHT22;23829;51.350;17.286;2022-11-20T08:21:43;15.60;29.50
38020;DHT22;23829;51.350;17.286;2022-11-20T08:24:10;15.60;29.50
38020;DHT22;23829;51.350;17.286;2022-11-20T08:26:38;15.70;29.50
38020;DHT22;23829;51.350;17.286;2022-11-20T08:29:05;15.80;29.40
38020;DHT22;23829;51.350;17.286;2022-11-20T08:31:32;15.80;29.50
38020;DHT22;23829;51.350;17.286;2022-11-20T08:33:58;15.80;29.30
38020;DHT22;23829;51.350;17.286;2022-11-20T08:36:25;15.90;29.30
38020;DHT22;23829;51.350;17.286;2022-11-20T08:38:53;16.10;29.00
38020;DHT22;23829;51.350;17.286;2022-11-20T08:41:21;16.30;29.00
38020;DHT22;23829;51.350;17.286;2022-11-20T08:43:51;16.00;29.20
38020;DHT22;23829;51.350;17.286;2022-11-20T08:46:19;15.90;29.30
38020;DHT22;23829;51.350;17.286;2022-11-20T08:48:45;15.80;29.30
38020;DHT22;23829;51.350;17.286;2022-11-20T08:51:12;15.90;29.20
38020;DHT22;23829;51.350;17.286;2022-11-20T08:53:39;16.00;29.20
38020;DHT22;23829;51.350;17.286;2022-11-20T08:56:05;16.20;29.00
38020;DHT22;23829;51.350;17.286;2022-11-20T08:58:32;16.20;29.10
38020;DHT22;23829;51.350;17.286;2022-11-20T09:00:58;16.30;29.10
38020;DHT22;23829;51.350;17.286;2022-11-20T09:03:25;16.60;28.70
38020;DHT22;23829;51.350;17.286;2022-11-20T09:06:04;16.70;28.60
38020;DHT22;23829;51.350;17.286;2022-11-20T09:08:31;16.90;28.40
38020;DHT22;23829;51.350;17.286;2022-11-20T09:10:58;16.60;28.60
38020;DHT22;23829;51.350;17.286;2022-11-20T09:13:26;16.40;28.80
38020;DHT22;23829;51.350;17.286;2022-11-20T09:16:00;16.20;28.90
38020;DHT22;23829;51.350;17.286;2022-11-20T09:18:28;16.10;29.00
38020;DHT22;23829;51.350;17.286;2022-11-20T09:21:06;16.10;29.00
38020;DHT22;23829;51.350;17.286;2022-11-20T09:23:35;16.30;28.90
38020;DHT22;23829;51.350;17.286;2022-11-20T09:26:06;16.60;28.60
38020;DHT22;23829;51.350;17.286;2022-11-20T09:28:34;16.80;28.40
38020;DHT22;23829;51.350;17.286;2022-11-20T09:31:04;17.00;28.00
38020;DHT22;23829;51.350;17.286;2022-11-20T09:33:30;17.10;28.00
38020;DHT22;23829;51.350;17.286;2022-11-20T09:35:57;17.20;27.80
38020;DHT22;23829;51.350;17.286;2022-11-20T09:38:23;17.00;28.00
38020;DHT22;23829;51.350;17.286;2022-11-20T09:47:16;17.20;27.50
38020;DHT22;23829;51.350;17.286;2022-11-20T09:55:17;16.60;28.00
38020;DHT22;23829;51.350;17.286;2022-11-20T09:57:46;16.70;28.00
38020;DHT22;23829;51.350;17.286;2022-11-20T10:00:14;16.60;28.00
38020;DHT22;23829;51.350;17.286;2022-11-20T10:05:27;16.80;27.80
38020;DHT22;23829;51.350;17.286;2022-11-20T10:08:21;17.10;27.50
38020;DHT22;23829;51.350;17.286;2022-11-20T10:11:06;17.30;27.10
38020;DHT22;23829;51.350;17.286;2022-11-20T10:16:36;17.40;27.00
38020;DHT22;23829;51.350;17.286;2022-11-20T10:19:36;17.40;26.60
38020;DHT22;23829;51.350;17.286;2022-11-20T10:27:56;18.10;26.00
38020;DHT22;23829;51.350;17.286;2022-11-20T10:30:27;18.20;26.00
38020;DHT22;23829;51.350;17.286;2022-11-20T10:33:06;18.10;26.00
38020;DHT22;23829;51.350;17.286;2022-11-20T10:35:44;18.00;26.00
38020;DHT22;23829;51.350;17.286;2022-11-20T10:38:17;17.70;26.20
38020;DHT22;23829;51.350;17.286;2022-11-20T10:40:50;17.70;26.00
38020;DHT22;23829;51.350;17.286;2022-11-20T10:43:32;17.80;26.20
38020;DHT22;23829;51.350;17.286;2022-11-20T10:46:03;17.80;25.90
38020;DHT22;23829;51.350;17.286;2022-11-20T10:48:32;18.00;25.90
38020;DHT22;23829;51.350;17.286;2022-11-20T10:51:13;18.10;25.60
38020;DHT22;23829;51.350;17.286;2022-11-20T10:56:47;17.90;25.80
38020;DHT22;23829;51.350;17.286;2022-11-20T11:01:49;18.00;25.90
38020;DHT22;23829;51.350;17.286;2022-11-20T11:07:08;18.20;25.90
38020;DHT22;23829;51.350;17.286;2022-11-20T11:09:42;18.30;25.70
38020;DHT22;23829;51.350;17.286;2022-11-20T11:12:10;18.50;25.50
38020;DHT22;23829;51.350;17.286;2022-11-20T11:14:46;18.50;25.60
38020;DHT22;23829;51.350;17.286;2022-11-20T11:17:31;18.50;25.40
38020;DHT22;23829;51.350;17.286;2022-11-20T11:19:59;18.40;25.60
38020;DHT22;23829;51.350;17.286;2022-11-20T11:22:31;18.40;25.60
38020;DHT22;23829;51.350;17.286;2022-11-20T11:24:58;18.20;25.70
38020;DHT22;23829;51.350;17.286;2022-11-20T11:27:25;18.20;25.80
38020;DHT22;23829;51.350;17.286;2022-11-20T11:30:22;18.30;25.70
38020;DHT22;23829;51.350;17.286;2022-11-20T11:32:48;18.50;25.60
38020;DHT22;23829;51.350;17.286;2022-11-20T11:35:26;18.50;25.60
38020;DHT22;23829;51.350;17.286;2022-11-20T11:38:02;18.50;25.70
38020;DHT22;23829;51.350;17.286;2022-11-20T11:40:32;18.40;25.70
38020;DHT22;23829;51.350;17.286;2022-11-20T11:43:07;18.10;25.80
38020;DHT22;23829;51.350;17.286;2022-11-20T11:46:03;18.10;25.90
38020;DHT22;23829;51.350;17.286;2022-11-20T11:48:32;18.10;26.00
38020;DHT22;23829;51.350;17.286;2022-11-20T11:50:58;18.00;26.10
38020;DHT22;23829;51.350;17.286;2022-11-20T11:53:26;17.90;26.20
38020;DHT22;23829;51.350;17.286;2022-11-20T11:56:13;18.10;26.30
38020;DHT22;23829;51.350;17.286;2022-11-20T11:58:48;18.20;26.20
38020;DHT22;23829;51.350;17.286;2022-11-20T12:06:50;18.50;26.10
38020;DHT22;23829;51.350;17.286;2022-11-20T12:09:18;18.50;26.10
38020;DHT22;23829;51.350;17.286;2022-11-20T12:12:05;18.50;26.10
38020;DHT22;23829;51.350;17.286;2022-11-20T12:14:42;18.50;26.10
38020;DHT22;23829;51.350;17.286;2022-11-20T12:17:11;18.50;26.20
38020;DHT22;23829;51.350;17.286;2022-11-20T12:19:39;18.30;26.30
38020;DHT22;23829;51.350;17.286;2022-11-20T12:30:24;18.40;26.50
38020;DHT22;23829;51.350;17.286;2022-11-20T12:47:12;17.70;27.40
38020;DHT22;23829;51.350;17.286;2022-11-20T12:50:49;17.40;27.70
38020;DHT22;23829;51.350;17.286;2022-11-20T12:52:56;17.60;27.50
38020;DHT22;23829;51.350;17.286;2022-11-20T13:03:51;17.90;27.10
38020;DHT22;23829;51.350;17.286;2022-11-20T13:06:21;18.10;26.90
38020;DHT22;23829;51.350;17.286;2022-11-20T13:08:53;17.90;26.90
38020;DHT22;23829;51.350;17.286;2022-11-20T13:19:27;18.10;26.80
38020;DHT22;23829;51.350;17.286;2022-11-20T13:21:55;18.10;26.90
38020;DHT22;23829;51.350;17.286;2022-11-20T13:24:27;18.00;26.80
38020;DHT22;23829;51.350;17.286;2022-11-20T13:29:35;18.20;26.80
38020;DHT22;23829;51.350;17.286;2022-11-20T13:34:50;18.40;26.60
38020;DHT22;23829;51.350;17.286;2022-11-20T13:37:32;18.50;26.60
38020;DHT22;23829;51.350;17.286;2022-11-20T13:42:40;18.70;26.60
38020;DHT22;23829;51.350;17.286;2022-11-20T13:45:21;18.80;26.50
38020;DHT22;23829;51.350;17.286;2022-11-20T13:47:52;18.80;26.40
38020;DHT22;23829;51.350;17.286;2022-11-20T13:50:21;18.80;27.00
38020;DHT22;23829;51.350;17.286;2022-11-20T13:53:10;18.80;26.50
38020;DHT22;23829;51.350;17.286;2022-11-20T13:55:49;19.00;26.50
38020;DHT22;23829;51.350;17.286;2022-11-20T13:58:48;19.00;26.50
38020;DHT22;23829;51.350;17.286;2022-11-20T14:01:21;19.10;26.30
38020;DHT22;23829;51.350;17.286;2022-11-20T14:03:49;19.10;26.40
38020;DHT22;23829;51.350;17.286;2022-11-20T14:06:29;19.00;26.40
38020;DHT22;23829;51.350;17.286;2022-11-20T14:08:56;19.00;26.40
38020;DHT22;23829;51.350;17.286;2022-11-20T14:11:28;19.10;26.50
38020;DHT22;23829;51.350;17.286;2022-11-20T14:14:15;19.10;26.60
38020;DHT22;23829;51.350;17.286;2022-11-20T14:16:42;19.00;26.40
38020;DHT22;23829;51.350;17.286;2022-11-20T14:24:13;19.00;27.10
38020;DHT22;23829;51.350;17.286;2022-11-20T14:26:44;19.00;26.70
38020;DHT22;23829;51.350;17.286;2022-11-20T14:29:19;19.00;26.70
38020;DHT22;23829;51.350;17.286;2022-11-20T14:31:48;19.00;26.90
38020;DHT22;23829;51.350;17.286;2022-11-20T14:34:20;19.00;26.90
38020;DHT22;23829;51.350;17.286;2022-11-20T14:36:47;19.00;27.00
38020;DHT22;23829;51.350;17.286;2022-11-20T14:39:21;18.90;26.80
38020;DHT22;23829;51.350;17.286;2022-11-20T14:41:52;18.90;26.90
38020;DHT22;23829;51.350;17.286;2022-11-20T14:44:25;18.90;26.90
38020;DHT22;23829;51.350;17.286;2022-11-20T14:46:52;18.80;26.90
38020;DHT22;23829;51.350;17.286;2022-11-20T14:49:20;18.70;27.10
38020;DHT22;23829;51.350;17.286;2022-11-20T14:52:02;18.70;27.10
38020;DHT22;23829;51.350;17.286;2022-11-20T14:54:29;18.70;27.20
38020;DHT22;23829;51.350;17.286;2022-11-20T14:57:01;18.70;27.10
38020;DHT22;23829;51.350;17.286;2022-11-20T14:59:32;18.70;27.20
38020;DHT22;23829;51.350;17.286;2022-11-20T15:02:12;18.70;27.30
38020;DHT22;23829;51.350;17.286;2022-11-20T15:04:49;18.60;27.30
38020;DHT22;23829;51.350;17.286;2022-11-20T15:07:28;18.50;27.30
38020;DHT22;23829;51.350;17.286;2022-11-20T15:10:06;18.50;27.20
38020;DHT22;23829;51.350;17.286;2022-11-20T15:12:36;18.40;27.30
38020;DHT22;23829;51.350;17.286;2022-11-20T15:15:04;18.40;27.20
38020;DHT22;23829;51.350;17.286;2022-11-20T15:17:32;18.40;27.40
38020;DHT22;23829;51.350;17.286;2022-11-20T15:20:02;18.40;27.30
38020;DHT22;23829;51.350;17.286;2022-11-20T15:22:31;18.30;27.20
38020;DHT22;23829;51.350;17.286;2022-11-20T15:24:57;18.20;27.50
38020;DHT22;23829;51.350;17.286;2022-11-20T15:27:24;18.20;27.50
38020;DHT22;23829;51.350;17.286;2022-11-20T15:29:50;18.10;27.30
38020;DHT22;23829;51.350;17.286;2022-11-20T15:32:17;18.10;27.40
38020;DHT22;23829;51.350;17.286;2022-11-20T15:34:43;18.10;27.50
38020;DHT22;23829;51.350;17.286;2022-11-20T15:37:10;18.00;27.50
38020;DHT22;23829;51.350;17.286;2022-11-20T15:39:36;18.00;27.70
38020;DHT22;23829;51.350;17.286;2022-11-20T15:42:02;18.00;27.50
38020;DHT22;23829;51.350;17.286;2022-11-20T15:44:28;17.90;27.70
38020;DHT22;23829;51.350;17.286;2022-11-20T15:46:55;17.90;27.80
38020;DHT22;23829;51.350;17.286;2022-11-20T15:49:22;17.90;27.70
38020;DHT22;23829;51.350;17.286;2022-11-20T15:51:50;17.90;27.70
38020;DHT22;23829;51.350;17.286;2022-11-20T15:54:20;17.90;27.70
38020;DHT22;23829;51.350;17.286;2022-11-20T15:56:48;17.70;27.70
38020;DHT22;23829;51.350;17.286;2022-11-20T15:59:15;17.70;27.80
38020;DHT22;23829;51.350;17.286;2022-11-20T16:01:42;17.70;27.80
38020;DHT22;23829;51.350;17.286;2022-11-20T16:04:13;17.70;27.80
38020;DHT22;23829;51.350;17.286;2022-11-20T16:06:41;17.70;27.80
38020;DHT22;23829;51.350;17.286;2022-11-20T16:09:07;17.60;27.90
38020;DHT22;23829;51.350;17.286;2022-11-20T16:11:35;17.60;28.00
38020;DHT22;23829;51.350;17.286;2022-11-20T16:14:03;17.60;27.70
38020;DHT22;23829;51.350;17.286;2022-11-20T16:16:49;17.60;27.80
38020;DHT22;23829;51.350;17.286;2022-11-20T16:19:15;17.60;27.90
38020;DHT22;23829;51.350;17.286;2022-11-20T16:21:42;17.60;28.00
38020;DHT22;23829;51.350;17.286;2022-11-20T16:24:12;17.50;27.80
38020;DHT22;23829;51.350;17.286;2022-11-20T16:26:40;17.50;27.90
38020;DHT22;23829;51.350;17.286;2022-11-20T16:29:07;17.50;28.00
38020;DHT22;23829;51.350;17.286;2022-11-20T16:31:34;17.40;28.00
38020;DHT22;23829;51.350;17.286;2022-11-20T16:34:03;17.40;28.00
38020;DHT22;23829;51.350;17.286;2022-11-20T16:36:30;17.40;28.00
38020;DHT22;23829;51.350;17.286;2022-11-20T16:38:58;17.30;28.10
38020;DHT22;23829;51.350;17.286;2022-11-20T16:41:28;17.30;28.10
38020;DHT22;23829;51.350;17.286;2022-11-20T16:43:57;17.30;28.30
38020;DHT22;23829;51.350;17.286;2022-11-20T16:46:27;17.20;28.20
38020;DHT22;23829;51.350;17.286;2022-11-20T16:48:56;17.20;28.20
38020;DHT22;23829;51.350;17.286;2022-11-20T16:51:23;17.20;28.10
38020;DHT22;23829;51.350;17.286;2022-11-20T16:53:50;17.30;28.20
38020;DHT22;23829;51.350;17.286;2022-11-20T16:56:22;17.20;28.20
38020;DHT22;23829;51.350;17.286;2022-11-20T16:58:49;17.20;28.30
38020;DHT22;23829;51.350;17.286;2022-11-20T17:01:18;17.10;28.20
38020;DHT22;23829;51.350;17.286;2022-11-20T17:03:52;17.10;28.30
38020;DHT22;23829;51.350;17.286;2022-11-20T17:06:25;17.10;28.40
38020;DHT22;23829;51.350;17.286;2022-11-20T17:08:53;17.10;28.30
38020;DHT22;23829;51.350;17.286;2022-11-20T17:11:20;17.00;28.20